sensor_id;sensor_type;location;lat;lon;timestamp;P1;durP1;ratioP1;P2;durP2;ratioP2
10461;SDS011;5278;42.656;23.374;2023-05-10T00:01:47;6.20;;;5.53;;
10461;SDS011;5278;42.656;23.374;2023-05-10T00:04:14;8.17;;;6.33;;
10461;SDS011;5278;42.656;23.374;2023-05-10T00:06:42;8.10;;;6.33;;
10461;SDS011;5278;42.656;23.374;2023-05-10T00:09:09;6.60;;;5.90;;
10461;SDS011;5278;42.656;23.374;2023-05-10T00:11:36;6.67;;;5.87;;
10461;SDS011;5278;42.656;23.374;2023-05-10T00:14:03;6.90;;;5.63;;
10461;SDS011;5278;42.656;23.374;2023-05-10T00:16:30;7.57;;;6.27;;
10461;SDS011;5278;42.656;23.374;2023-05-10T00:18:57;7.40;;;6.70;;
10461;SDS011;5278;42.656;23.374;2023-05-10T00:21:24;6.83;;;6.13;;
10461;SDS011;5278;42.656;23.374;2023-05-10T00:23:54;6.80;;;6.10;;
10461;SDS011;5278;42.656;23.374;2023-05-10T00:26:21;5.87;;;5.30;;
10461;SDS011;5278;42.656;23.374;2023-05-10T00:28:48;6.50;;;5.90;;
10461;SDS011;5278;42.656;23.374;2023-05-10T00:31:15;7.83;;;6.77;;
10461;SDS011;5278;42.656;23.374;2023-05-10T00:33:42;7.63;;;6.93;;
10461;SDS011;5278;42.656;23.374;2023-05-10T00:36:09;9.40;;;7.70;;
10461;SDS011;5278;42.656;23.374;2023-05-10T00:38:36;7.83;;;6.77;;
10461;SDS011;5278;42.656;23.374;2023-05-10T00:41:05;7.97;;;5.87;;
10461;SDS011;5278;42.656;23.374;2023-05-10T00:43:32;7.23;;;6.53;;
10461;SDS011;5278;42.656;23.374;2023-05-10T00:45:59;7.17;;;6.50;;
10461;SDS011;5278;42.656;23.374;2023-05-10T00:48:26;7.80;;;7.10;;
10461;SDS011;5278;42.656;23.374;2023-05-10T00:50:54;7.60;;;6.90;;
10461;SDS011;5278;42.656;23.374;2023-05-10T00:53:22;7.23;;;6.53;;
10461;SDS011;5278;42.656;23.374;2023-05-10T00:55:50;7.50;;;6.77;;
10461;SDS011;5278;42.656;23.374;2023-05-10T00:58:19;7.40;;;6.67;;
10461;SDS011;5278;42.656;23.374;2023-05-10T01:00:46;7.40;;;6.53;;
10461;SDS011;5278;42.656;23.374;2023-05-10T01:03:14;8.77;;;7.10;;
10461;SDS011;5278;42.656;23.374;2023-05-10T01:05:42;7.57;;;6.87;;
10461;SDS011;5278;42.656;23.374;2023-05-10T01:08:09;8.90;;;7.40;;
10461;SDS011;5278;42.656;23.374;2023-05-10T01:10:36;7.53;;;6.83;;
10461;SDS011;5278;42.656;23.374;2023-05-10T01:13:03;7.30;;;6.60;;
10461;SDS011;5278;42.656;23.374;2023-05-10T01:15:32;7.57;;;6.17;;
10461;SDS011;5278;42.656;23.374;2023-05-10T01:17:59;7.03;;;6.43;;
10461;SDS011;5278;42.656;23.374;2023-05-10T01:20:27;6.50;;;5.90;;
10461;SDS011;5278;42.656;23.374;2023-05-10T01:28:58;6.90;;;6.20;;
10461;SDS011;5278;42.656;23.374;2023-05-10T01:34:36;7.37;;;6.37;;
10461;SDS011;5278;42.656;23.374;2023-05-10T01:37:13;7.07;;;6.10;;
10461;SDS011;5278;42.656;23.374;2023-05-10T01:39:48;5.70;;;5.20;;
10461;SDS011;5278;42.656;23.374;2023-05-10T01:42:21;6.07;;;5.47;;
10461;SDS011;5278;42.656;23.374;2023-05-10T01:44:54;5.20;;;4.80;;
10461;SDS011;5278;42.656;23.374;2023-05-10T01:47:30;5.40;;;4.90;;
10461;SDS011;5278;42.656;23.374;2023-05-10T01:50:04;5.50;;;5.00;;
10461;SDS011;5278;42.656;23.374;2023-05-10T01:52:36;5.67;;;5.17;;
10461;SDS011;5278;42.656;23.374;2023-05-10T01:55:09;5.33;;;4.83;;
10461;SDS011;5278;42.656;23.374;2023-05-10T01:57:42;5.53;;;5.03;;
10461;SDS011;5278;42.656;23.374;2023-05-10T02:00:10;5.10;;;4.70;;
10461;SDS011;5278;42.656;23.374;2023-05-10T02:02:42;5.50;;;4.77;;
10461;SDS011;5278;42.656;23.374;2023-05-10T02:05:13;4.97;;;4.57;;
10461;SDS011;5278;42.656;23.374;2023-05-10T02:07:41;5.57;;;4.40;;
10461;SDS011;5278;42.656;23.374;2023-05-10T02:10:09;7.13;;;4.30;;
10461;SDS011;5278;42.656;23.374;2023-05-10T02:12:39;6.00;;;4.60;;
10461;SDS011;5278;42.656;23.374;2023-05-10T02:15:09;7.10;;;4.67;;
10461;SDS011;5278;42.656;23.374;2023-05-10T02:17:38;5.23;;;4.73;;
10461;SDS011;5278;42.656;23.374;2023-05-10T02:20:08;6.00;;;4.77;;
10461;SDS011;5278;42.656;23.374;2023-05-10T02:22:37;6.07;;;4.80;;
10461;SDS011;5278;42.656;23.374;2023-05-10T02:25:06;5.40;;;4.20;;
10461;SDS011;5278;42.656;23.374;2023-05-10T02:27:37;4.73;;;4.23;;
10461;SDS011;5278;42.656;23.374;2023-05-10T02:30:07;5.80;;;4.30;;
10461;SDS011;5278;42.656;23.374;2023-05-10T02:32:35;5.97;;;4.97;;
10461;SDS011;5278;42.656;23.374;2023-05-10T02:35:04;5.00;;;4.50;;
10461;SDS011;5278;42.656;23.374;2023-05-10T02:37:34;5.17;;;4.23;;
10461;SDS011;5278;42.656;23.374;2023-05-10T02:40:03;7.20;;;4.43;;
10461;SDS011;5278;42.656;23.374;2023-05-10T02:42:32;5.90;;;4.30;;
10461;SDS011;5278;42.656;23.374;2023-05-10T02:45:03;4.50;;;4.10;;
10461;SDS011;5278;42.656;23.374;2023-05-10T02:47:34;4.90;;;4.40;;
10461;SDS011;5278;42.656;23.374;2023-05-10T02:50:02;5.20;;;4.17;;
10461;SDS011;5278;42.656;23.374;2023-05-10T02:52:34;5.27;;;4.20;;
10461;SDS011;5278;42.656;23.374;2023-05-10T02:55:07;4.77;;;4.30;;
10461;SDS011;5278;42.656;23.374;2023-05-10T02:57:36;4.63;;;4.20;;
10461;SDS011;5278;42.656;23.374;2023-05-10T03:00:07;4.53;;;4.07;;
10461;SDS011;5278;42.656;23.374;2023-05-10T03:02:35;5.17;;;4.67;;
10461;SDS011;5278;42.656;23.374;2023-05-10T03:05:02;5.13;;;4.20;;
10461;SDS011;5278;42.656;23.374;2023-05-10T03:07:29;5.53;;;4.30;;
10461;SDS011;5278;42.656;23.374;2023-05-10T03:09:58;4.80;;;4.07;;
10461;SDS011;5278;42.656;23.374;2023-05-10T03:12:27;4.70;;;4.27;;
10461;SDS011;5278;42.656;23.374;2023-05-10T03:15:09;5.47;;;4.13;;
10461;SDS011;5278;42.656;23.374;2023-05-10T03:17:46;5.40;;;4.90;;
10461;SDS011;5278;42.656;23.374;2023-05-10T03:20:20;5.47;;;4.30;;
10461;SDS011;5278;42.656;23.374;2023-05-10T03:22:52;4.37;;;3.90;;
10461;SDS011;5278;42.656;23.374;2023-05-10T03:25:23;6.07;;;4.60;;
10461;SDS011;5278;42.656;23.374;2023-05-10T03:27:51;6.17;;;4.33;;
10461;SDS011;5278;42.656;23.374;2023-05-10T03:30:20;5.60;;;4.13;;
10461;SDS011;5278;42.656;23.374;2023-05-10T03:32:47;6.80;;;4.53;;
10461;SDS011;5278;42.656;23.374;2023-05-10T03:35:14;5.97;;;4.63;;
10461;SDS011;5278;42.656;23.374;2023-05-10T03:37:41;7.13;;;4.53;;
10461;SDS011;5278;42.656;23.374;2023-05-10T03:40:08;4.70;;;4.20;;
10461;SDS011;5278;42.656;23.374;2023-05-10T03:42:37;5.63;;;4.60;;
10461;SDS011;5278;42.656;23.374;2023-05-10T03:45:04;5.40;;;4.90;;
10461;SDS011;5278;42.656;23.374;2023-05-10T03:47:32;5.10;;;4.50;;
10461;SDS011;5278;42.656;23.374;2023-05-10T03:49:59;5.10;;;4.40;;
10461;SDS011;5278;42.656;23.374;2023-05-10T03:52:26;4.20;;;3.80;;
10461;SDS011;5278;42.656;23.374;2023-05-10T03:54:53;5.83;;;4.70;;
10461;SDS011;5278;42.656;23.374;2023-05-10T03:57:20;5.63;;;4.40;;
10461;SDS011;5278;42.656;23.374;2023-05-10T03:59:49;6.07;;;4.37;;
10461;SDS011;5278;42.656;23.374;2023-05-10T04:02:16;4.93;;;4.27;;
10461;SDS011;5278;42.656;23.374;2023-05-10T04:04:43;6.63;;;4.30;;
10461;SDS011;5278;42.656;23.374;2023-05-10T04:07:10;4.60;;;4.20;;
10461;SDS011;5278;42.656;23.374;2023-05-10T04:09:37;7.30;;;4.67;;
10461;SDS011;5278;42.656;23.374;2023-05-10T04:12:04;5.73;;;5.10;;
10461;SDS011;5278;42.656;23.374;2023-05-10T04:14:31;8.43;;;4.10;;
10461;SDS011;5278;42.656;23.374;2023-05-10T04:17:00;4.80;;;4.30;;
10461;SDS011;5278;42.656;23.374;2023-05-10T04:19:28;6.00;;;5.13;;
10461;SDS011;5278;42.656;23.374;2023-05-10T04:21:56;5.20;;;4.20;;
10461;SDS011;5278;42.656;23.374;2023-05-10T04:24:24;4.63;;;4.23;;
10461;SDS011;5278;42.656;23.374;2023-05-10T04:26:53;5.73;;;4.50;;
10461;SDS011;5278;42.656;23.374;2023-05-10T04:29:21;5.10;;;4.37;;
10461;SDS011;5278;42.656;23.374;2023-05-10T04:31:47;4.70;;;4.20;;
10461;SDS011;5278;42.656;23.374;2023-05-10T04:34:17;8.03;;;5.23;;
10461;SDS011;5278;42.656;23.374;2023-05-10T04:36:44;6.77;;;5.27;;
10461;SDS011;5278;42.656;23.374;2023-05-10T04:39:11;7.33;;;4.73;;
10461;SDS011;5278;42.656;23.374;2023-05-10T04:41:38;5.33;;;4.83;;
10461;SDS011;5278;42.656;23.374;2023-05-10T04:44:05;6.10;;;5.50;;
10461;SDS011;5278;42.656;23.374;2023-05-10T04:46:32;5.50;;;5.00;;
10461;SDS011;5278;42.656;23.374;2023-05-10T04:48:59;6.43;;;5.40;;
10461;SDS011;5278;42.656;23.374;2023-05-10T04:51:28;6.37;;;5.60;;
10461;SDS011;5278;42.656;23.374;2023-05-10T04:53:55;6.50;;;5.30;;
10461;SDS011;5278;42.656;23.374;2023-05-10T04:56:22;5.30;;;4.80;;
10461;SDS011;5278;42.656;23.374;2023-05-10T04:58:49;8.43;;;6.20;;
10461;SDS011;5278;42.656;23.374;2023-05-10T05:01:18;12.50;;;7.17;;
10461;SDS011;5278;42.656;23.374;2023-05-10T05:03:45;8.03;;;6.83;;
10461;SDS011;5278;42.656;23.374;2023-05-10T05:06:12;6.00;;;5.03;;
10461;SDS011;5278;42.656;23.374;2023-05-10T05:08:40;6.03;;;5.43;;
10461;SDS011;5278;42.656;23.374;2023-05-10T05:11:10;6.70;;;5.80;;
10461;SDS011;5278;42.656;23.374;2023-05-10T05:13:36;6.57;;;5.67;;
10461;SDS011;5278;42.656;23.374;2023-05-10T05:16:04;6.93;;;5.73;;
10461;SDS011;5278;42.656;23.374;2023-05-10T05:18:35;5.83;;;5.07;;
10461;SDS011;5278;42.656;23.374;2023-05-10T05:21:02;7.23;;;5.70;;
10461;SDS011;5278;42.656;23.374;2023-05-10T05:23:29;11.43;;;7.20;;
10461;SDS011;5278;42.656;23.374;2023-05-10T05:25:58;9.70;;;5.97;;
10461;SDS011;5278;42.656;23.374;2023-05-10T05:28:24;6.60;;;5.90;;
10461;SDS011;5278;42.656;23.374;2023-05-10T05:30:53;7.23;;;6.47;;
10461;SDS011;5278;42.656;23.374;2023-05-10T05:33:20;8.93;;;6.03;;
10461;SDS011;5278;42.656;23.374;2023-05-10T05:35:47;6.97;;;6.27;;
10461;SDS011;5278;42.656;23.374;2023-05-10T05:38:15;8.50;;;6.87;;
10461;SDS011;5278;42.656;23.374;2023-05-10T05:40:42;8.43;;;6.70;;
10461;SDS011;5278;42.656;23.374;2023-05-10T05:43:12;6.93;;;5.90;;
10461;SDS011;5278;42.656;23.374;2023-05-10T05:45:39;8.20;;;6.70;;
10461;SDS011;5278;42.656;23.374;2023-05-10T05:48:06;9.63;;;6.23;;
10461;SDS011;5278;42.656;23.374;2023-05-10T05:50:34;10.10;;;7.07;;
10461;SDS011;5278;42.656;23.374;2023-05-10T05:53:01;12.23;;;7.80;;
10461;SDS011;5278;42.656;23.374;2023-05-10T05:55:30;7.03;;;6.33;;
10461;SDS011;5278;42.656;23.374;2023-05-10T05:57:58;7.63;;;6.67;;
10461;SDS011;5278;42.656;23.374;2023-05-10T06:00:33;8.67;;;6.80;;
10461;SDS011;5278;42.656;23.374;2023-05-10T06:03:11;7.63;;;6.83;;
10461;SDS011;5278;42.656;23.374;2023-05-10T06:05:43;9.70;;;7.80;;
10461;SDS011;5278;42.656;23.374;2023-05-10T06:08:10;7.77;;;6.73;;
10461;SDS011;5278;42.656;23.374;2023-05-10T06:10:37;11.80;;;6.90;;
10461;SDS011;5278;42.656;23.374;2023-05-10T06:13:04;7.43;;;6.73;;
10461;SDS011;5278;42.656;23.374;2023-05-10T06:15:33;8.10;;;6.53;;
10461;SDS011;5278;42.656;23.374;2023-05-10T06:17:59;7.97;;;7.17;;
10461;SDS011;5278;42.656;23.374;2023-05-10T06:20:26;7.40;;;6.70;;
10461;SDS011;5278;42.656;23.374;2023-05-10T06:22:54;11.77;;;7.80;;
10461;SDS011;5278;42.656;23.374;2023-05-10T06:25:20;12.10;;;7.80;;
10461;SDS011;5278;42.656;23.374;2023-05-10T06:27:48;7.57;;;6.20;;
10461;SDS011;5278;42.656;23.374;2023-05-10T06:30:15;7.37;;;6.03;;
10461;SDS011;5278;42.656;23.374;2023-05-10T06:32:43;7.70;;;6.90;;
10461;SDS011;5278;42.656;23.374;2023-05-10T06:35:11;8.27;;;6.70;;
10461;SDS011;5278;42.656;23.374;2023-05-10T06:37:37;7.43;;;6.63;;
10461;SDS011;5278;42.656;23.374;2023-05-10T06:40:06;10.13;;;6.67;;
10461;SDS011;5278;42.656;23.374;2023-05-10T06:42:34;10.13;;;6.77;;
10461;SDS011;5278;42.656;23.374;2023-05-10T06:45:01;8.00;;;6.23;;
10461;SDS011;5278;42.656;23.374;2023-05-10T06:47:28;6.47;;;5.80;;
10461;SDS011;5278;42.656;23.374;2023-05-10T06:49:57;6.87;;;5.97;;
10461;SDS011;5278;42.656;23.374;2023-05-10T06:52:24;6.93;;;6.17;;
10461;SDS011;5278;42.656;23.374;2023-05-10T06:54:51;9.27;;;6.60;;
10461;SDS011;5278;42.656;23.374;2023-05-10T06:57:18;6.77;;;5.87;;
10461;SDS011;5278;42.656;23.374;2023-05-10T06:59:45;7.43;;;6.50;;
10461;SDS011;5278;42.656;23.374;2023-05-10T07:02:12;8.13;;;5.70;;
10461;SDS011;5278;42.656;23.374;2023-05-10T07:04:40;9.30;;;6.27;;
10461;SDS011;5278;42.656;23.374;2023-05-10T07:07:09;6.67;;;5.43;;
10461;SDS011;5278;42.656;23.374;2023-05-10T07:09:36;7.00;;;6.30;;
10461;SDS011;5278;42.656;23.374;2023-05-10T07:12:05;7.33;;;5.90;;
10461;SDS011;5278;42.656;23.374;2023-05-10T07:14:32;8.77;;;6.57;;
10461;SDS011;5278;42.656;23.374;2023-05-10T07:16:58;7.40;;;5.77;;
10461;SDS011;5278;42.656;23.374;2023-05-10T07:19:25;7.37;;;6.10;;
10461;SDS011;5278;42.656;23.374;2023-05-10T07:21:54;10.00;;;6.30;;
10461;SDS011;5278;42.656;23.374;2023-05-10T07:24:23;6.80;;;6.10;;
10461;SDS011;5278;42.656;23.374;2023-05-10T07:26:50;9.47;;;6.90;;
10461;SDS011;5278;42.656;23.374;2023-05-10T07:29:17;8.57;;;6.70;;
10461;SDS011;5278;42.656;23.374;2023-05-10T07:31:44;8.23;;;6.67;;
10461;SDS011;5278;42.656;23.374;2023-05-10T07:34:12;8.10;;;7.30;;
10461;SDS011;5278;42.656;23.374;2023-05-10T07:36:42;10.20;;;7.57;;
10461;SDS011;5278;42.656;23.374;2023-05-10T07:39:09;9.47;;;7.87;;
10461;SDS011;5278;42.656;23.374;2023-05-10T07:41:37;12.17;;;7.90;;
10461;SDS011;5278;42.656;23.374;2023-05-10T07:44:05;9.63;;;7.73;;
10461;SDS011;5278;42.656;23.374;2023-05-10T07:46:32;12.10;;;9.13;;
10461;SDS011;5278;42.656;23.374;2023-05-10T07:48:59;14.00;;;8.97;;
10461;SDS011;5278;42.656;23.374;2023-05-10T07:51:26;10.33;;;8.73;;
10461;SDS011;5278;42.656;23.374;2023-05-10T07:53:54;11.93;;;8.93;;
10461;SDS011;5278;42.656;23.374;2023-05-10T07:56:21;12.37;;;9.47;;
10461;SDS011;5278;42.656;23.374;2023-05-10T07:58:51;10.50;;;9.10;;
10461;SDS011;5278;42.656;23.374;2023-05-10T08:01:19;9.53;;;8.53;;
10461;SDS011;5278;42.656;23.374;2023-05-10T08:03:46;8.77;;;7.87;;
10461;SDS011;5278;42.656;23.374;2023-05-10T08:06:13;14.40;;;9.67;;
10461;SDS011;5278;42.656;23.374;2023-05-10T08:08:41;11.47;;;8.43;;
10461;SDS011;5278;42.656;23.374;2023-05-10T08:11:08;9.60;;;8.40;;
10461;SDS011;5278;42.656;23.374;2023-05-10T08:13:35;10.90;;;8.37;;
10461;SDS011;5278;42.656;23.374;2023-05-10T08:16:04;8.53;;;6.17;;
10461;SDS011;5278;42.656;23.374;2023-05-10T08:18:32;6.77;;;6.07;;
10461;SDS011;5278;42.656;23.374;2023-05-10T08:20:59;6.40;;;5.80;;
10461;SDS011;5278;42.656;23.374;2023-05-10T08:23:26;10.30;;;6.20;;
10461;SDS011;5278;42.656;23.374;2023-05-10T08:25:54;7.87;;;6.13;;
10461;SDS011;5278;42.656;23.374;2023-05-10T08:28:23;9.33;;;6.53;;
10461;SDS011;5278;42.656;23.374;2023-05-10T08:30:50;7.80;;;5.83;;
10461;SDS011;5278;42.656;23.374;2023-05-10T08:33:19;6.57;;;5.97;;
10461;SDS011;5278;42.656;23.374;2023-05-10T08:35:47;6.97;;;6.27;;
10461;SDS011;5278;42.656;23.374;2023-05-10T08:38:14;7.17;;;6.47;;
10461;SDS011;5278;42.656;23.374;2023-05-10T08:40:41;8.10;;;6.33;;
10461;SDS011;5278;42.656;23.374;2023-05-10T08:43:11;7.10;;;6.40;;
10461;SDS011;5278;42.656;23.374;2023-05-10T08:45:41;7.10;;;5.67;;
10461;SDS011;5278;42.656;23.374;2023-05-10T08:48:10;6.50;;;5.90;;
10461;SDS011;5278;42.656;23.374;2023-05-10T08:50:41;6.63;;;5.47;;
10461;SDS011;5278;42.656;23.374;2023-05-10T08:53:09;6.83;;;6.13;;
10461;SDS011;5278;42.656;23.374;2023-05-10T08:55:39;6.53;;;5.93;;
10461;SDS011;5278;42.656;23.374;2023-05-10T08:58:08;7.47;;;6.63;;
10461;SDS011;5278;42.656;23.374;2023-05-10T09:00:36;8.70;;;7.80;;
10461;SDS011;5278;42.656;23.374;2023-05-10T09:03:03;9.83;;;8.07;;
10461;SDS011;5278;42.656;23.374;2023-05-10T09:05:31;8.73;;;7.17;;
10461;SDS011;5278;42.656;23.374;2023-05-10T09:07:59;7.47;;;6.67;;
10461;SDS011;5278;42.656;23.374;2023-05-10T09:10:27;8.77;;;7.23;;
10461;SDS011;5278;42.656;23.374;2023-05-10T09:12:56;7.93;;;7.13;;
10461;SDS011;5278;42.656;23.374;2023-05-10T09:15:24;10.73;;;8.37;;
10461;SDS011;5278;42.656;23.374;2023-05-10T09:17:52;11.47;;;8.00;;
10461;SDS011;5278;42.656;23.374;2023-05-10T09:20:20;10.10;;;8.87;;
10461;SDS011;5278;42.656;23.374;2023-05-10T09:22:47;13.17;;;7.93;;
10461;SDS011;5278;42.656;23.374;2023-05-10T09:25:16;8.23;;;7.23;;
10461;SDS011;5278;42.656;23.374;2023-05-10T09:27:44;9.03;;;7.53;;
10461;SDS011;5278;42.656;23.374;2023-05-10T09:30:15;9.40;;;8.40;;
10461;SDS011;5278;42.656;23.374;2023-05-10T09:32:43;10.03;;;7.10;;
10461;SDS011;5278;42.656;23.374;2023-05-10T09:35:11;10.33;;;8.30;;
10461;SDS011;5278;42.656;23.374;2023-05-10T09:37:40;9.43;;;7.30;;
10461;SDS011;5278;42.656;23.374;2023-05-10T09:40:10;8.77;;;7.87;;
10461;SDS011;5278;42.656;23.374;2023-05-10T09:42:41;9.20;;;8.30;;
10461;SDS011;5278;42.656;23.374;2023-05-10T09:45:09;8.93;;;8.03;;
10461;SDS011;5278;42.656;23.374;2023-05-10T09:47:36;10.07;;;7.87;;
10461;SDS011;5278;42.656;23.374;2023-05-10T09:50:04;9.97;;;8.87;;
10461;SDS011;5278;42.656;23.374;2023-05-10T09:52:35;10.17;;;8.87;;
10461;SDS011;5278;42.656;23.374;2023-05-10T09:55:12;9.23;;;7.30;;
10461;SDS011;5278;42.656;23.374;2023-05-10T09:57:41;11.97;;;9.93;;
10461;SDS011;5278;42.656;23.374;2023-05-10T10:00:09;9.73;;;8.03;;
10461;SDS011;5278;42.656;23.374;2023-05-10T10:02:37;9.67;;;8.67;;
10461;SDS011;5278;42.656;23.374;2023-05-10T10:05:06;7.80;;;7.07;;
10461;SDS011;5278;42.656;23.374;2023-05-10T10:07:33;10.53;;;8.83;;
10461;SDS011;5278;42.656;23.374;2023-05-10T10:10:01;11.63;;;8.80;;
10461;SDS011;5278;42.656;23.374;2023-05-10T10:12:30;9.10;;;7.90;;
10461;SDS011;5278;42.656;23.374;2023-05-10T10:14:58;12.53;;;9.00;;
10461;SDS011;5278;42.656;23.374;2023-05-10T10:17:26;8.23;;;7.43;;
10461;SDS011;5278;42.656;23.374;2023-05-10T10:19:54;8.23;;;7.43;;
10461;SDS011;5278;42.656;23.374;2023-05-10T10:22:23;11.50;;;8.57;;
10461;SDS011;5278;42.656;23.374;2023-05-10T10:24:50;9.53;;;7.67;;
10461;SDS011;5278;42.656;23.374;2023-05-10T10:27:20;9.67;;;6.97;;
10461;SDS011;5278;42.656;23.374;2023-05-10T10:29:55;8.90;;;7.07;;
10461;SDS011;5278;42.656;23.374;2023-05-10T10:32:33;7.47;;;6.60;;
10461;SDS011;5278;42.656;23.374;2023-05-10T10:35:09;7.40;;;6.67;;
10461;SDS011;5278;42.656;23.374;2023-05-10T10:37:46;8.63;;;7.20;;
10461;SDS011;5278;42.656;23.374;2023-05-10T10:43:20;6.93;;;6.30;;
10461;SDS011;5278;42.656;23.374;2023-05-10T10:48:40;8.43;;;6.33;;
10461;SDS011;5278;42.656;23.374;2023-05-10T10:51:08;6.27;;;5.67;;
10461;SDS011;5278;42.656;23.374;2023-05-10T10:53:34;8.07;;;6.00;;
10461;SDS011;5278;42.656;23.374;2023-05-10T10:56:07;7.27;;;6.57;;
10461;SDS011;5278;42.656;23.374;2023-05-10T10:58:35;8.03;;;6.07;;
10461;SDS011;5278;42.656;23.374;2023-05-10T11:01:15;7.10;;;5.77;;
10461;SDS011;5278;42.656;23.374;2023-05-10T11:03:55;6.83;;;5.60;;
10461;SDS011;5278;42.656;23.374;2023-05-10T11:06:44;6.07;;;5.57;;
10461;SDS011;5278;42.656;23.374;2023-05-10T11:09:12;9.40;;;6.43;;
10461;SDS011;5278;42.656;23.374;2023-05-10T11:11:49;8.47;;;6.83;;
10461;SDS011;5278;42.656;23.374;2023-05-10T11:14:20;8.57;;;6.33;;
10461;SDS011;5278;42.656;23.374;2023-05-10T11:16:49;8.27;;;6.80;;
10461;SDS011;5278;42.656;23.374;2023-05-10T11:19:17;6.20;;;5.63;;
10461;SDS011;5278;42.656;23.374;2023-05-10T11:21:45;13.17;;;5.70;;
10461;SDS011;5278;42.656;23.374;2023-05-10T11:24:14;7.30;;;5.53;;
10461;SDS011;5278;42.656;23.374;2023-05-10T11:26:42;10.10;;;6.60;;
10461;SDS011;5278;42.656;23.374;2023-05-10T11:29:11;11.10;;;6.30;;
10461;SDS011;5278;42.656;23.374;2023-05-10T11:31:41;8.27;;;6.30;;
10461;SDS011;5278;42.656;23.374;2023-05-10T11:34:11;8.23;;;6.50;;
10461;SDS011;5278;42.656;23.374;2023-05-10T11:36:50;7.20;;;6.50;;
10461;SDS011;5278;42.656;23.374;2023-05-10T11:39:19;8.00;;;5.97;;
10461;SDS011;5278;42.656;23.374;2023-05-10T11:41:47;9.17;;;5.87;;
10461;SDS011;5278;42.656;23.374;2023-05-10T11:44:15;11.00;;;6.53;;
10461;SDS011;5278;42.656;23.374;2023-05-10T11:46:42;8.70;;;5.97;;
10461;SDS011;5278;42.656;23.374;2023-05-10T11:49:10;8.57;;;6.53;;
10461;SDS011;5278;42.656;23.374;2023-05-10T11:51:38;8.40;;;6.17;;
10461;SDS011;5278;42.656;23.374;2023-05-10T11:54:07;10.13;;;6.80;;
10461;SDS011;5278;42.656;23.374;2023-05-10T11:56:35;6.90;;;6.20;;
10461;SDS011;5278;42.656;23.374;2023-05-10T11:59:03;6.93;;;6.23;;
10461;SDS011;5278;42.656;23.374;2023-05-10T12:01:30;8.70;;;6.57;;
10461;SDS011;5278;42.656;23.374;2023-05-10T12:03:58;8.40;;;6.63;;
10461;SDS011;5278;42.656;23.374;2023-05-10T12:06:28;11.47;;;7.10;;
10461;SDS011;5278;42.656;23.374;2023-05-10T12:08:56;8.23;;;6.20;;
10461;SDS011;5278;42.656;23.374;2023-05-10T12:11:24;7.60;;;6.80;;
10461;SDS011;5278;42.656;23.374;2023-05-10T12:13:53;6.93;;;6.20;;
10461;SDS011;5278;42.656;23.374;2023-05-10T12:16:21;9.27;;;7.43;;
10461;SDS011;5278;42.656;23.374;2023-05-10T12:18:50;7.77;;;6.90;;
10461;SDS011;5278;42.656;23.374;2023-05-10T12:21:18;8.30;;;6.90;;
10461;SDS011;5278;42.656;23.374;2023-05-10T12:23:48;9.80;;;6.73;;
10461;SDS011;5278;42.656;23.374;2023-05-10T12:26:17;7.80;;;6.40;;
10461;SDS011;5278;42.656;23.374;2023-05-10T12:28:45;9.47;;;6.83;;
10461;SDS011;5278;42.656;23.374;2023-05-10T12:31:12;10.20;;;7.47;;
10461;SDS011;5278;42.656;23.374;2023-05-10T12:33:39;7.20;;;6.07;;
10461;SDS011;5278;42.656;23.374;2023-05-10T12:36:08;9.90;;;6.97;;
10461;SDS011;5278;42.656;23.374;2023-05-10T12:38:36;8.90;;;7.07;;
10461;SDS011;5278;42.656;23.374;2023-05-10T12:41:06;7.27;;;6.40;;
10461;SDS011;5278;42.656;23.374;2023-05-10T12:43:35;7.47;;;6.40;;
10461;SDS011;5278;42.656;23.374;2023-05-10T12:46:06;6.20;;;5.60;;
10461;SDS011;5278;42.656;23.374;2023-05-10T12:48:34;8.20;;;6.20;;
10461;SDS011;5278;42.656;23.374;2023-05-10T12:51:01;7.30;;;6.37;;
10461;SDS011;5278;42.656;23.374;2023-05-10T12:53:29;6.53;;;5.83;;
10461;SDS011;5278;42.656;23.374;2023-05-10T12:55:56;11.90;;;6.50;;
10461;SDS011;5278;42.656;23.374;2023-05-10T12:58:24;10.00;;;6.03;;
10461;SDS011;5278;42.656;23.374;2023-05-10T13:00:51;6.77;;;5.57;;
10461;SDS011;5278;42.656;23.374;2023-05-10T13:03:19;9.70;;;6.20;;
10461;SDS011;5278;42.656;23.374;2023-05-10T13:05:45;7.80;;;6.60;;
10461;SDS011;5278;42.656;23.374;2023-05-10T13:08:13;13.07;;;6.40;;
10461;SDS011;5278;42.656;23.374;2023-05-10T13:10:40;7.87;;;6.37;;
10461;SDS011;5278;42.656;23.374;2023-05-10T13:13:08;6.93;;;6.23;;
10461;SDS011;5278;42.656;23.374;2023-05-10T13:15:37;6.90;;;5.93;;
10461;SDS011;5278;42.656;23.374;2023-05-10T13:18:04;9.03;;;6.00;;
10461;SDS011;5278;42.656;23.374;2023-05-10T13:20:31;9.87;;;5.70;;
10461;SDS011;5278;42.656;23.374;2023-05-10T13:22:58;10.13;;;6.30;;
10461;SDS011;5278;42.656;23.374;2023-05-10T13:25:26;9.93;;;6.23;;
10461;SDS011;5278;42.656;23.374;2023-05-10T13:27:53;8.70;;;6.87;;
10461;SDS011;5278;42.656;23.374;2023-05-10T13:30:21;6.93;;;5.53;;
10461;SDS011;5278;42.656;23.374;2023-05-10T13:32:50;6.57;;;5.50;;
10461;SDS011;5278;42.656;23.374;2023-05-10T13:35:17;7.30;;;6.50;;
10461;SDS011;5278;42.656;23.374;2023-05-10T13:37:44;6.73;;;6.10;;
10461;SDS011;5278;42.656;23.374;2023-05-10T13:40:11;7.63;;;6.00;;
10461;SDS011;5278;42.656;23.374;2023-05-10T13:42:40;7.63;;;6.63;;
10461;SDS011;5278;42.656;23.374;2023-05-10T13:45:07;8.93;;;5.63;;
10461;SDS011;5278;42.656;23.374;2023-05-10T13:47:34;7.93;;;5.93;;
10461;SDS011;5278;42.656;23.374;2023-05-10T13:50:03;7.57;;;6.00;;
10461;SDS011;5278;42.656;23.374;2023-05-10T13:52:31;10.37;;;6.33;;
10461;SDS011;5278;42.656;23.374;2023-05-10T13:54:58;7.07;;;5.37;;
10461;SDS011;5278;42.656;23.374;2023-05-10T13:57:25;6.63;;;5.33;;
10461;SDS011;5278;42.656;23.374;2023-05-10T13:59:53;10.90;;;6.73;;
10461;SDS011;5278;42.656;23.374;2023-05-10T14:02:20;9.40;;;6.07;;
10461;SDS011;5278;42.656;23.374;2023-05-10T14:04:47;8.47;;;5.83;;
10461;SDS011;5278;42.656;23.374;2023-05-10T14:07:16;7.63;;;5.93;;
10461;SDS011;5278;42.656;23.374;2023-05-10T14:09:43;6.03;;;4.93;;
10461;SDS011;5278;42.656;23.374;2023-05-10T14:12:10;9.60;;;6.40;;
10461;SDS011;5278;42.656;23.374;2023-05-10T14:14:39;7.77;;;6.43;;
10461;SDS011;5278;42.656;23.374;2023-05-10T14:17:06;8.20;;;6.17;;
10461;SDS011;5278;42.656;23.374;2023-05-10T14:19:33;7.23;;;5.53;;
10461;SDS011;5278;42.656;23.374;2023-05-10T14:22:00;7.90;;;6.23;;
10461;SDS011;5278;42.656;23.374;2023-05-10T14:24:29;7.20;;;5.53;;
10461;SDS011;5278;42.656;23.374;2023-05-10T14:26:56;8.23;;;6.53;;
10461;SDS011;5278;42.656;23.374;2023-05-10T14:29:23;8.80;;;6.23;;
10461;SDS011;5278;42.656;23.374;2023-05-10T14:31:50;8.60;;;5.93;;
10461;SDS011;5278;42.656;23.374;2023-05-10T14:34:17;7.63;;;6.83;;
10461;SDS011;5278;42.656;23.374;2023-05-10T14:36:45;9.83;;;6.77;;
10461;SDS011;5278;42.656;23.374;2023-05-10T14:39:12;9.30;;;6.53;;
10461;SDS011;5278;42.656;23.374;2023-05-10T14:41:40;7.57;;;6.07;;
10461;SDS011;5278;42.656;23.374;2023-05-10T14:44:09;8.90;;;6.20;;
10461;SDS011;5278;42.656;23.374;2023-05-10T14:46:36;9.33;;;6.83;;
10461;SDS011;5278;42.656;23.374;2023-05-10T14:49:03;9.87;;;6.93;;
10461;SDS011;5278;42.656;23.374;2023-05-10T14:51:30;11.67;;;6.23;;
10461;SDS011;5278;42.656;23.374;2023-05-10T14:53:57;8.73;;;6.33;;
10461;SDS011;5278;42.656;23.374;2023-05-10T14:56:24;7.60;;;6.77;;
10461;SDS011;5278;42.656;23.374;2023-05-10T14:58:54;7.80;;;6.67;;
10461;SDS011;5278;42.656;23.374;2023-05-10T15:01:21;7.77;;;6.27;;
10461;SDS011;5278;42.656;23.374;2023-05-10T15:03:48;7.13;;;6.13;;
10461;SDS011;5278;42.656;23.374;2023-05-10T15:06:15;6.43;;;5.83;;
10461;SDS011;5278;42.656;23.374;2023-05-10T15:08:42;6.70;;;6.00;;